Airport Name : Norfolk Intl

Other Name : Norfolk Intl

ICAO : KORF

IATA : ORF

FAA : ORF

Latitude : 36.894611

Longitude : -76.201222

Country : United States

Local Date and Time : 18 Jun 2024 20:46

 

TAF (Terminal Aerodrome Forecast)

KORF 182327Z 1900/1924 15009KT P6SM SKC FM190300 VRB05KT P6SM SKC FM190800 VRB03KT P6SM FEW250 FM191200 11005KT P6SM SCT250 FM191600 08009KT P6SM SCT050

 

METAR (METeorological Aerodrome Report)

KORF 182351Z 15006G15KT 10SM CLR 26/18 A3025 RMK AO2 SLP243 T02610178 10306 20261 53004

KORF 182251Z 13011KT 10SM CLR 27/17 A3023 RMK AO2 SLP237 T02720167

KORF 182151Z 13007KT 10SM CLR 28/17 A3023 RMK AO2 SLP238 T02830167

KORF 182051Z AUTO 16009KT 10SM CLR 29/17 A3024 RMK AO2 SLP240 T02890172 58005